Time;durP1;ratioP1;P1;durP2;ratioP2;P2;SDS_P1;SDS_P2;PMS_P1;PMS_P2;Temp;Humidity;BMP_temperature;BMP_pressure;BME280_temperature;BME280_humidity;BME280_pressure;Samples;Min_cycle;Max_cycle;Signal;HPM_P1;HPM_P2
2022/04/19 00:00:53;;;;;;;6.07;2.22;;;;;;;;;;10456977;28;20037;-44
2022/04/19 00:05:54;;;;;;;6.40;2.65;;;;;;;;;;10456537;28;20036;-48
2022/04/19 00:10:55;;;;;;;10.40;2.30;;;;;;;;;;10456513;28;20072;-47
2022/04/19 00:15:57;;;;;;;6.40;2.20;;;;;;;;;;10455946;28;20048;-46
2022/04/19 00:20:59;;;;;;;5.30;2.25;;;;;;;;;;10456854;28;20422;-42
2022/04/19 00:25:59;;;;;;;3.47;1.95;;;;;;;;;;10455843;28;20032;-42
2022/04/19 00:31:00;;;;;;;6.47;2.15;;;;;;;;;;10456164;28;20051;-41
2022/04/19 00:36:01;;;;;;;8.65;2.70;;;;;;;;;;10455453;28;20044;-42
2022/04/19 00:41:01;;;;;;;5.93;2.13;;;;;;;;;;10455567;28;20094;-42
2022/04/19 00:46:02;;;;;;;6.25;2.20;;;;;;;;;;10454889;28;20037;-44
2022/04/19 00:51:04;;;;;;;5.93;2.15;;;;;;;;;;10446175;28;20036;-43
2022/04/19 00:56:04;;;;;;;5.18;2.03;;;;;;;;;;10442882;28;20048;-43
2022/04/19 01:01:05;;;;;;;5.95;2.00;;;;;;;;;;10454869;28;20030;-42
2022/04/19 01:06:06;;;;;;;4.05;2.25;;;;;;;;;;10454341;28;20033;-42
2022/04/19 01:16:26;;;;;;;3.15;1.55;;;;;;;;;;10438920;28;20045;-42
2022/04/19 01:21:43;;;;;;;2.33;1.70;;;;;;;;;;10436399;28;20384;-42
2022/04/19 01:26:46;;;;;;;3.25;1.85;;;;;;;;;;10453507;28;20530;-41
2022/04/19 01:31:48;;;;;;;3.95;1.75;;;;;;;;;;10453932;28;20132;-42
2022/04/19 01:36:48;;;;;;;5.15;2.03;;;;;;;;;;10435475;28;20037;-42
2022/04/19 01:41:49;;;;;;;4.10;1.73;;;;;;;;;;10453184;28;20045;-43
2022/04/19 01:46:49;;;;;;;2.90;1.88;;;;;;;;;;10452910;28;20033;-43
2022/04/19 01:51:50;;;;;;;3.35;1.80;;;;;;;;;;10453080;28;20091;-42
2022/04/19 01:56:50;;;;;;;8.07;1.77;;;;;;;;;;10452095;28;20044;-42
2022/04/19 02:01:51;;;;;;;3.60;1.95;;;;;;;;;;10451917;28;20071;-42
2022/04/19 02:06:52;;;;;;;3.75;1.48;;;;;;;;;;10451850;28;20028;-42
2022/04/19 02:11:52;;;;;;;4.68;2.30;;;;;;;;;;10451955;28;20033;-43
2022/04/19 02:16:53;;;;;;;2.30;1.63;;;;;;;;;;10451246;28;20040;-42
2022/04/19 02:21:53;;;;;;;3.75;1.60;;;;;;;;;;10451825;28;20075;-43
2022/04/19 02:26:54;;;;;;;7.43;1.80;;;;;;;;;;10450904;28;20037;-42
2022/04/19 02:31:55;;;;;;;3.60;1.70;;;;;;;;;;10451363;28;20028;-43
2022/04/19 02:36:55;;;;;;;3.63;1.83;;;;;;;;;;10450714;28;20037;-42
2022/04/19 02:41:56;;;;;;;4.05;1.80;;;;;;;;;;10451041;28;20025;-42
2022/04/19 02:46:56;;;;;;;2.10;1.63;;;;;;;;;;10450471;28;20037;-43
2022/04/19 02:51:57;;;;;;;2.25;1.60;;;;;;;;;;10443142;28;20040;-48
2022/04/19 02:56:58;;;;;;;1.73;1.60;;;;;;;;;;10449795;28;20114;-48
2022/04/19 03:01:58;;;;;;;4.35;1.58;;;;;;;;;;10450227;28;20037;-48
2022/04/19 03:06:59;;;;;;;3.05;1.70;;;;;;;;;;10449087;28;20476;-44
2022/04/19 03:12:00;;;;;;;3.58;1.83;;;;;;;;;;10449964;28;20043;-49
2022/04/19 03:17:00;;;;;;;4.05;1.58;;;;;;;;;;10449191;28;20032;-44
2022/04/19 03:22:01;;;;;;;4.20;1.88;;;;;;;;;;10449543;28;20025;-49
2022/04/19 03:32:21;;;;;;;3.67;1.60;;;;;;;;;;10449972;28;20025;-48
2022/04/19 03:37:22;;;;;;;3.80;1.52;;;;;;;;;;10449169;28;20441;-42
2022/04/19 03:42:24;;;;;;;2.00;1.40;;;;;;;;;;10449280;28;20480;-46
2022/04/19 03:47:25;;;;;;;2.33;1.63;;;;;;;;;;10448596;28;20021;-49
2022/04/19 03:52:26;;;;;;;1.77;1.60;;;;;;;;;;10449156;28;20530;-42
2022/04/19 03:57:27;;;;;;;4.88;1.67;;;;;;;;;;10448495;28;20047;-50
2022/04/19 04:02:28;;;;;;;3.80;1.60;;;;;;;;;;10449095;28;20029;-42
2022/04/19 04:07:28;;;;;;;2.90;1.70;;;;;;;;;;10448431;28;20032;-42
2022/04/19 04:12:29;;;;;;;2.40;1.42;;;;;;;;;;10448826;28;20028;-42
2022/04/19 04:17:30;;;;;;;2.70;1.38;;;;;;;;;;10448294;28;20039;-42
2022/04/19 04:22:30;;;;;;;3.10;1.40;;;;;;;;;;10448879;28;20443;-42
2022/04/19 04:27:31;;;;;;;1.83;1.40;;;;;;;;;;10451760;28;20037;-43
2022/04/19 04:32:32;;;;;;;2.55;1.55;;;;;;;;;;10456082;28;20059;-43
2022/04/19 04:37:32;;;;;;;1.45;1.15;;;;;;;;;;10455791;28;20116;-43
2022/04/19 04:42:33;;;;;;;2.60;1.40;;;;;;;;;;10455503;28;20124;-43
2022/04/19 04:52:53;;;;;;;2.47;1.35;;;;;;;;;;10455068;28;20037;-43
2022/04/19 04:57:58;;;;;;;2.05;1.38;;;;;;;;;;10454930;28;20052;-42
2022/04/19 05:02:58;;;;;;;1.98;1.30;;;;;;;;;;10454763;28;20045;-43
2022/04/19 05:07:59;;;;;;;2.33;1.42;;;;;;;;;;10454625;28;20542;-42
2022/04/19 05:12:59;;;;;;;5.28;1.40;;;;;;;;;;10453969;28;20091;-43
2022/04/19 05:18:00;;;;;;;1.55;1.20;;;;;;;;;;10454286;28;20039;-43
2022/04/19 05:23:01;;;;;;;3.85;1.50;;;;;;;;;;10453716;28;20036;-43
2022/04/19 05:28:02;;;;;;;1.75;1.30;;;;;;;;;;10453749;28;20021;-43
2022/04/19 05:33:03;;;;;;;4.32;1.70;;;;;;;;;;10446902;28;20098;-42
2022/04/19 05:38:04;;;;;;;2.65;1.50;;;;;;;;;;10444574;28;20591;-42
2022/04/19 05:43:05;;;;;;;3.33;1.60;;;;;;;;;;10413045;28;20037;-44
2022/04/19 05:48:06;;;;;;;1.42;1.20;;;;;;;;;;10412071;28;20014;-42
2022/04/19 05:53:06;;;;;;;1.60;1.27;;;;;;;;;;10447607;28;20118;-46
2022/04/19 05:58:07;;;;;;;4.97;1.40;;;;;;;;;;10450905;28;20037;-46
2022/04/19 06:08:26;;;;;;;4.53;2.08;;;;;;;;;;10448415;28;20488;-44
2022/04/19 06:13:28;;;;;;;6.50;2.03;;;;;;;;;;10436167;28;20041;-43
2022/04/19 06:18:28;;;;;;;10.75;2.65;;;;;;;;;;10428108;28;20195;-48
2022/04/19 06:23:29;;;;;;;6.50;2.50;;;;;;;;;;10444792;28;20143;-44
2022/04/19 06:28:30;;;;;;;12.30;2.53;;;;;;;;;;10459429;28;20138;-47
2022/04/19 06:33:31;;;;;;;15.68;3.28;;;;;;;;;;10443155;28;20039;-49
2022/04/19 06:38:32;;;;;;;16.88;2.60;;;;;;;;;;10450941;28;20028;-46
2022/04/19 06:43:32;;;;;;;12.75;2.42;;;;;;;;;;10450870;28;20381;-47
2022/04/19 06:48:34;;;;;;;6.22;2.25;;;;;;;;;;10432636;28;20045;-43
2022/04/19 06:53:36;;;;;;;15.23;2.70;;;;;;;;;;10421201;28;20056;-46
2022/04/19 06:58:39;;;;;;;7.97;2.20;;;;;;;;;;10440692;28;20123;-46
2022/04/19 07:03:39;;;;;;;5.75;1.95;;;;;;;;;;10450345;28;20036;-46
2022/04/19 07:08:40;;;;;;;8.90;2.47;;;;;;;;;;10449606;28;20082;-46
2022/04/19 07:13:41;;;;;;;3.63;2.22;;;;;;;;;;10449928;28;20036;-48
2022/04/19 07:18:41;;;;;;;16.17;3.55;;;;;;;;;;10438286;28;20031;-47
2022/04/19 07:29:02;;;;;;;6.10;2.30;;;;;;;;;;10409172;28;20021;-48
2022/04/19 07:34:03;;;;;;;7.43;2.28;;;;;;;;;;10409414;28;20033;-48
2022/04/19 07:39:04;;;;;;;8.27;2.20;;;;;;;;;;10408532;28;20038;-44
2022/04/19 07:44:06;;;;;;;7.53;1.90;;;;;;;;;;10408917;28;20100;-47
2022/04/19 07:49:07;;;;;;;9.70;2.63;;;;;;;;;;10406125;28;20038;-49
2022/04/19 07:54:07;;;;;;;8.45;2.53;;;;;;;;;;10408600;28;20100;-46
2022/04/19 07:59:08;;;;;;;9.00;2.30;;;;;;;;;;10407185;28;20072;-42
2022/04/19 08:04:09;;;;;;;3.63;2.05;;;;;;;;;;10439685;28;20472;-46
2022/04/19 08:09:09;;;;;;;3.45;2.28;;;;;;;;;;10457699;28;20036;-50
2022/04/19 08:14:10;;;;;;;5.40;1.98;;;;;;;;;;10449148;28;20039;-48
2022/04/19 08:19:11;;;;;;;7.03;2.20;;;;;;;;;;10462009;28;20089;-52
2022/04/19 08:24:11;;;;;;;5.20;1.83;;;;;;;;;;10462921;28;20020;-52
2022/04/19 08:29:12;;;;;;;6.65;1.88;;;;;;;;;;10457354;28;20033;-46
2022/04/19 08:34:13;;;;;;;6.63;1.92;;;;;;;;;;10461572;28;20025;-49
2022/04/19 08:39:13;;;;;;;5.28;1.90;;;;;;;;;;10474818;28;20613;-47
2022/04/19 08:44:15;;;;;;;5.47;2.10;;;;;;;;;;10484479;28;20025;-48
2022/04/19 08:49:17;;;;;;;3.30;1.90;;;;;;;;;;10474673;28;20073;-46
2022/04/19 08:59:36;;;;;;;4.35;2.30;;;;;;;;;;10472324;28;20124;-46
2022/04/19 09:04:38;;;;;;;14.23;2.28;;;;;;;;;;10467664;28;20461;-50
2022/04/19 09:09:39;;;;;;;3.30;2.13;;;;;;;;;;10479063;28;20059;-50
2022/04/19 09:14:58;;;;;;;4.00;2.35;;;;;;;;;;10473588;28;20025;-46
2022/04/19 09:20:34;;;;;;;4.20;2.28;;;;;;;;;;10470373;28;20291;-51
2022/04/19 09:25:36;;;;;;;3.80;2.00;;;;;;;;;;10367415;28;20644;-49
2022/04/19 09:30:37;;;;;;;2.70;1.95;;;;;;;;;;10350815;28;20072;-43
2022/04/19 09:35:43;;;;;;;9.10;2.20;;;;;;;;;;10348480;28;20038;-47
2022/04/19 09:40:48;;;;;;;7.13;2.17;;;;;;;;;;10363187;28;20129;-48
2022/04/19 09:45:57;;;;;;;8.07;2.35;;;;;;;;;;10343549;28;20041;-47
2022/04/19 09:51:13;;;;;;;4.78;2.20;;;;;;;;;;10339697;28;20034;-46
2022/04/19 09:56:17;;;;;;;7.15;2.58;;;;;;;;;;10361511;28;20447;-51
2022/04/19 10:11:58;;;;;;;3.38;2.20;;;;;;;;;;10420203;28;20041;-50
2022/04/19 10:16:59;;;;;;;5.05;2.28;;;;;;;;;;10451083;28;20033;-43
2022/04/19 10:22:07;;;;;;;6.43;2.40;;;;;;;;;;10451862;28;20086;-48
2022/04/19 10:27:10;;;;;;;4.20;2.00;;;;;;;;;;10450725;28;20036;-46
2022/04/19 10:32:12;;;;;;;5.47;2.63;;;;;;;;;;10451544;28;20028;-45
2022/04/19 10:37:15;;;;;;;4.65;2.35;;;;;;;;;;10450923;28;20056;-48
2022/04/19 10:42:28;;;;;;;6.28;2.40;;;;;;;;;;10450895;28;20469;-48
2022/04/19 10:47:29;;;;;;;3.25;2.42;;;;;;;;;;10450745;28;20068;-44
2022/04/19 10:52:44;;;;;;;4.35;2.25;;;;;;;;;;10432904;28;20489;-48
2022/04/19 11:03:13;;;;;;;3.05;2.20;;;;;;;;;;10450422;28;20044;-43
2022/04/19 11:08:26;;;;;;;3.60;2.10;;;;;;;;;;10450229;28;20039;-48
2022/04/19 11:13:35;;;;;;;8.80;2.15;;;;;;;;;;10449943;28;20076;-45
2022/04/19 11:18:42;;;;;;;8.63;2.40;;;;;;;;;;10449888;28;20029;-47
2022/04/19 11:23:50;;;;;;;3.63;2.53;;;;;;;;;;10447940;28;20033;-48
2022/04/19 11:29:09;;;;;;;7.57;2.13;;;;;;;;;;10448009;28;20037;-48
2022/04/19 11:34:18;;;;;;;3.78;2.63;;;;;;;;;;10449587;28;20048;-50
2022/04/19 11:50:01;;;;;;;10.40;4.03;;;;;;;;;;10463777;28;20480;-45
2022/04/19 11:55:03;;;;;;;10.10;3.42;;;;;;;;;;10451396;28;20025;-49
2022/04/19 12:00:05;;;;;;;8.20;3.17;;;;;;;;;;10465487;28;20053;-43
2022/04/19 12:05:06;;;;;;;9.50;3.38;;;;;;;;;;10439377;28;20064;-48
2022/04/19 12:10:08;;;;;;;7.38;3.05;;;;;;;;;;10462793;28;20538;-43
2022/04/19 12:15:09;;;;;;;7.70;2.72;;;;;;;;;;10454845;28;20036;-47
2022/04/19 12:20:10;;;;;;;6.97;2.70;;;;;;;;;;10421734;28;20032;-52
2022/04/19 12:25:20;;;;;;;4.97;2.72;;;;;;;;;;10421139;28;20033;-51
2022/04/19 12:30:28;;;;;;;7.22;3.00;;;;;;;;;;10409444;28;20370;-50
2022/04/19 12:35:34;;;;;;;4.97;2.60;;;;;;;;;;10458559;28;20091;-46
2022/04/19 12:40:37;;;;;;;7.75;2.45;;;;;;;;;;10458181;28;20441;-49
2022/04/19 12:45:40;;;;;;;4.15;2.50;;;;;;;;;;10459826;28;20074;-48
2022/04/19 12:50:40;;;;;;;6.63;2.78;;;;;;;;;;10453318;28;20374;-46
2022/04/19 12:55:41;;;;;;;8.90;3.03;;;;;;;;;;10455045;28;20029;-45
2022/04/19 13:00:41;;;;;;;6.50;2.50;;;;;;;;;;10426166;28;20031;-45
2022/04/19 13:16:20;;;;;;;4.28;2.40;;;;;;;;;;10454157;28;20029;-48
2022/04/19 13:21:24;;;;;;;9.02;2.88;;;;;;;;;;10454051;28;20037;-44
2022/04/19 13:26:25;;;;;;;5.32;2.60;;;;;;;;;;10454126;28;20031;-44
2022/04/19 13:31:27;;;;;;;3.97;2.30;;;;;;;;;;10452899;28;20090;-43
2022/04/19 13:36:27;;;;;;;4.78;2.60;;;;;;;;;;10434081;28;20100;-49
2022/04/19 13:41:28;;;;;;;3.38;2.40;;;;;;;;;;10418217;28;20576;-46
2022/04/19 13:46:28;;;;;;;6.80;2.50;;;;;;;;;;10411977;28;20401;-43
2022/04/19 13:51:29;;;;;;;5.35;2.92;;;;;;;;;;10447883;28;20385;-49
2022/04/19 13:56:30;;;;;;;5.75;2.92;;;;;;;;;;10420742;28;20057;-43
2022/04/19 14:01:31;;;;;;;3.67;2.33;;;;;;;;;;10424273;28;20029;-45
2022/04/19 14:06:35;;;;;;;6.78;2.40;;;;;;;;;;10445905;28;20091;-45
2022/04/19 14:11:36;;;;;;;4.32;2.38;;;;;;;;;;10393956;28;20112;-48
2022/04/19 14:16:37;;;;;;;9.32;2.70;;;;;;;;;;10410570;28;20499;-43
2022/04/19 14:21:37;;;;;;;6.88;2.28;;;;;;;;;;10412071;28;20027;-49
2022/04/19 14:26:38;;;;;;;3.75;2.35;;;;;;;;;;10451762;28;20278;-43
2022/04/19 14:36:58;;;;;;;3.20;1.92;;;;;;;;;;10424009;28;20420;-45
2022/04/19 14:41:59;;;;;;;5.70;2.20;;;;;;;;;;10451125;28;20029;-45
2022/04/19 14:47:00;;;;;;;6.82;2.38;;;;;;;;;;10450534;28;20036;-44
2022/04/19 14:52:18;;;;;;;5.40;1.95;;;;;;;;;;10429171;28;20085;-43
2022/04/19 14:57:19;;;;;;;5.05;2.17;;;;;;;;;;10431939;28;20101;-43
2022/04/19 15:02:21;;;;;;;2.28;2.05;;;;;;;;;;10453576;28;20028;-48
2022/04/19 15:07:21;;;;;;;2.45;2.08;;;;;;;;;;10448220;28;20515;-47
2022/04/19 15:12:23;;;;;;;3.80;2.20;;;;;;;;;;10449658;28;20036;-43
2022/04/19 15:17:24;;;;;;;5.85;2.58;;;;;;;;;;10449385;28;20056;-44
2022/04/19 15:22:25;;;;;;;3.08;1.90;;;;;;;;;;10445793;28;20022;-42
2022/04/19 15:27:26;;;;;;;3.15;2.42;;;;;;;;;;10409754;28;20075;-42
2022/04/19 15:32:26;;;;;;;3.10;2.45;;;;;;;;;;10449087;28;20059;-43
2022/04/19 15:37:27;;;;;;;3.85;2.33;;;;;;;;;;10408699;28;20444;-42
2022/04/19 15:42:28;;;;;;;3.70;2.40;;;;;;;;;;10475743;28;20388;-42
2022/04/19 15:47:29;;;;;;;4.65;2.63;;;;;;;;;;10447870;28;20036;-46
2022/04/19 15:52:29;;;;;;;3.13;2.08;;;;;;;;;;10449145;28;20526;-42
2022/04/19 15:57:30;;;;;;;2.17;1.90;;;;;;;;;;10438726;28;20513;-44
2022/04/19 16:02:31;;;;;;;7.78;2.58;;;;;;;;;;10405423;28;20580;-42
2022/04/19 16:07:31;;;;;;;5.60;2.15;;;;;;;;;;10404776;28;20033;-43
2022/04/19 16:12:32;;;;;;;5.10;2.35;;;;;;;;;;10410087;28;20044;-43
2022/04/19 16:28:11;;;;;;;3.17;2.10;;;;;;;;;;10414803;28;20120;-44
2022/04/19 16:33:11;;;;;;;7.10;2.50;;;;;;;;;;10414835;28;20622;-43
2022/04/19 16:38:13;;;;;;;3.63;2.22;;;;;;;;;;10414717;28;20095;-43
2022/04/19 16:43:13;;;;;;;5.30;2.10;;;;;;;;;;10426793;28;20120;-44
2022/04/19 16:48:14;;;;;;;3.65;2.00;;;;;;;;;;10454694;28;20342;-42
2022/04/19 16:53:16;;;;;;;3.83;2.28;;;;;;;;;;10455324;28;20036;-43
2022/04/19 16:58:16;;;;;;;3.72;2.22;;;;;;;;;;10454954;28;20053;-47
2022/04/19 17:08:36;;;;;;;4.78;1.77;;;;;;;;;;10453743;28;20537;-47
2022/04/19 17:13:36;;;;;;;7.45;2.50;;;;;;;;;;10436848;28;20021;-48
2022/04/19 17:18:37;;;;;;;5.22;2.20;;;;;;;;;;10436928;28;20037;-46
2022/04/19 17:23:38;;;;;;;5.55;2.50;;;;;;;;;;10449971;28;20033;-47
2022/04/19 17:28:38;;;;;;;21.48;2.50;;;;;;;;;;10416550;28;20488;-47
2022/04/19 17:33:39;;;;;;;5.90;2.33;;;;;;;;;;10445042;28;20514;-50
2022/04/19 17:38:40;;;;;;;6.38;2.30;;;;;;;;;;10441177;28;20028;-46
2022/04/19 17:43:41;;;;;;;7.25;2.50;;;;;;;;;;10443912;28;20040;-48
2022/04/19 17:48:42;;;;;;;6.88;2.20;;;;;;;;;;10450947;28;20044;-47
2022/04/19 17:59:05;;;;;;;7.55;2.33;;;;;;;;;;10436101;28;20041;-47
2022/04/19 18:04:05;;;;;;;5.70;2.10;;;;;;;;;;10450811;28;20029;-46
2022/04/19 18:09:07;;;;;;;7.10;2.35;;;;;;;;;;10447474;28;20082;-48
2022/04/19 18:14:07;;;;;;;14.07;2.65;;;;;;;;;;10452216;28;20039;-44
2022/04/19 18:19:08;;;;;;;7.47;2.20;;;;;;;;;;10444653;28;20047;-45
2022/04/19 18:29:28;;;;;;;12.40;2.40;;;;;;;;;;10451262;28;20488;-44
2022/04/19 18:34:29;;;;;;;9.30;2.90;;;;;;;;;;10451108;28;20037;-45
2022/04/19 18:39:29;;;;;;;11.13;2.63;;;;;;;;;;10451089;28;20044;-44
2022/04/19 18:44:30;;;;;;;10.88;2.30;;;;;;;;;;10450219;28;20472;-43
2022/04/19 18:49:31;;;;;;;4.43;2.35;;;;;;;;;;10450491;28;20071;-43
2022/04/19 18:54:33;;;;;;;9.02;2.28;;;;;;;;;;10450441;28;20040;-45
2022/04/19 18:59:33;;;;;;;5.30;1.98;;;;;;;;;;10449315;28;20485;-42
2022/04/19 19:04:34;;;;;;;5.97;2.13;;;;;;;;;;10450061;28;20082;-45
2022/04/19 19:09:36;;;;;;;6.30;2.25;;;;;;;;;;10450158;28;20029;-45
2022/04/19 19:14:37;;;;;;;4.80;2.13;;;;;;;;;;10449969;28;20124;-45
2022/04/19 19:19:37;;;;;;;4.63;2.47;;;;;;;;;;10447194;28;20598;-43
2022/04/19 19:24:38;;;;;;;8.20;2.35;;;;;;;;;;10449464;28;20040;-43
2022/04/19 19:29:39;;;;;;;9.30;2.10;;;;;;;;;;10449297;28;20035;-43
2022/04/19 19:34:39;;;;;;;6.13;2.22;;;;;;;;;;10449078;28;20029;-45
2022/04/19 19:39:40;;;;;;;4.38;2.00;;;;;;;;;;10449243;28;20079;-46
2022/04/19 19:44:41;;;;;;;4.90;2.00;;;;;;;;;;10447340;28;20400;-41
2022/04/19 19:49:42;;;;;;;7.97;2.40;;;;;;;;;;10449149;28;20035;-44
2022/04/19 19:54:42;;;;;;;10.05;2.83;;;;;;;;;;10427631;28;20029;-42
2022/04/19 19:59:43;;;;;;;6.35;2.95;;;;;;;;;;10444437;28;20036;-42
2022/04/19 20:04:44;;;;;;;9.32;2.83;;;;;;;;;;10486425;28;20450;-43
2022/04/19 20:09:45;;;;;;;18.20;3.10;;;;;;;;;;10487368;28;20033;-44
2022/04/19 20:14:45;;;;;;;12.90;3.35;;;;;;;;;;10456861;28;20025;-43
2022/04/19 20:19:46;;;;;;;10.95;2.83;;;;;;;;;;10417365;28;20446;-42
2022/04/19 20:24:47;;;;;;;21.00;3.97;;;;;;;;;;10429532;28;20031;-43
2022/04/19 20:29:48;;;;;;;14.60;3.28;;;;;;;;;;10456227;28;20029;-45
2022/04/19 20:34:49;;;;;;;11.40;3.40;;;;;;;;;;10416809;28;20033;-41
2022/04/19 20:39:50;;;;;;;13.50;3.60;;;;;;;;;;10437476;28;20044;-42
2022/04/19 20:44:51;;;;;;;7.60;2.83;;;;;;;;;;10445150;28;20033;-43
2022/04/19 20:50:07;;;;;;;11.88;2.90;;;;;;;;;;10414397;28;20021;-44
2022/04/19 20:55:09;;;;;;;6.75;2.80;;;;;;;;;;10414995;28;20034;-45
2022/04/19 21:00:22;;;;;;;10.82;3.45;;;;;;;;;;10431831;28;20095;-42
2022/04/19 21:05:25;;;;;;;10.20;2.90;;;;;;;;;;10454595;28;20025;-45
2022/04/19 21:10:25;;;;;;;8.55;2.83;;;;;;;;;;10439912;28;20056;-45
2022/04/19 21:15:26;;;;;;;6.97;2.70;;;;;;;;;;10448972;28;20120;-42
2022/04/19 21:20:27;;;;;;;10.80;3.25;;;;;;;;;;10452625;28;20033;-46
2022/04/19 21:25:27;;;;;;;6.07;2.42;;;;;;;;;;10451675;28;20116;-42
2022/04/19 21:30:29;;;;;;;6.97;2.40;;;;;;;;;;10450575;28;20070;-45
2022/04/19 21:35:30;;;;;;;7.82;2.42;;;;;;;;;;10452969;28;20044;-44
2022/04/19 21:40:30;;;;;;;15.40;2.92;;;;;;;;;;10433345;28;20052;-44
2022/04/19 21:45:31;;;;;;;5.32;2.60;;;;;;;;;;10444079;28;20512;-41
2022/04/19 21:50:31;;;;;;;9.63;3.08;;;;;;;;;;10454155;28;20419;-42
2022/04/19 21:55:32;;;;;;;9.55;3.35;;;;;;;;;;10450374;28;20480;-43
2022/04/19 22:01:16;;;;;;;8.10;2.67;;;;;;;;;;10451778;28;20025;-45
2022/04/19 22:06:18;;;;;;;10.18;2.78;;;;;;;;;;10452667;28;20064;-44
2022/04/19 22:11:19;;;;;;;4.70;2.80;;;;;;;;;;10448348;28;20094;-44
2022/04/19 22:16:20;;;;;;;8.45;2.50;;;;;;;;;;10452129;28;20040;-44
2022/04/19 22:21:20;;;;;;;8.48;2.90;;;;;;;;;;10447134;28;20039;-46
2022/04/19 22:26:21;;;;;;;8.13;2.63;;;;;;;;;;10452006;28;20033;-45
2022/04/19 22:31:22;;;;;;;12.05;3.15;;;;;;;;;;10452087;28;20033;-45
2022/04/19 22:36:23;;;;;;;8.55;2.95;;;;;;;;;;10440047;28;20404;-46
2022/04/19 22:41:24;;;;;;;7.75;3.10;;;;;;;;;;10447482;28;20025;-45
2022/04/19 22:46:24;;;;;;;4.85;2.90;;;;;;;;;;10450953;28;20133;-44
2022/04/19 22:51:26;;;;;;;7.30;3.30;;;;;;;;;;10451002;28;20029;-43
2022/04/19 22:56:27;;;;;;;5.82;2.70;;;;;;;;;;10434731;28;20072;-42
2022/04/19 23:01:27;;;;;;;8.73;2.38;;;;;;;;;;10444183;28;20064;-42
2022/04/19 23:06:28;;;;;;;4.22;2.63;;;;;;;;;;10408823;28;20095;-42
2022/04/19 23:11:28;;;;;;;3.70;2.53;;;;;;;;;;10409170;28;20029;-42
2022/04/19 23:16:29;;;;;;;12.63;2.45;;;;;;;;;;10428748;28;20047;-42
2022/04/19 23:21:30;;;;;;;7.82;2.60;;;;;;;;;;10450040;28;20033;-42
2022/04/19 23:31:49;;;;;;;;;;;;;;;;;;10450170;28;20041;-48
2022/04/19 23:36:50;;;;;;;15.85;2.72;;;;;;;;;;10449630;28;20015;-47
2022/04/19 23:41:50;;;;;;;6.95;2.83;;;;;;;;;;10449487;28;20447;-42
2022/04/19 23:46:51;;;;;;;3.85;2.25;;;;;;;;;;10449060;28;20381;-42
2022/04/19 23:51:52;;;;;;;9.18;2.63;;;;;;;;;;10449267;28;20068;-42
2022/04/19 23:56:52;;;;;;;6.88;2.50;;;;;;;;;;10449051;28;20053;-42
